Alpharetta, Georgia
Current Conditions -  °F | °C
As of 10:53 PM on Wednesday 28 Jan 2015 (Local Time) from KPDK Reporting Station
Clear Clear  
Wind Chill: 34°   Ceiling: Unl
Heat Index: 34°   Visibility: 10mi
Dew Point: 26°   Wind: 0mph
Humidity: 73%   Direction: NA
Pressure: 30.27"   Gusts: NA
Location:  34.08°N, 84.29°W
Report Text: KPDK 290353Z AUTO 00000KT 10SM CLR 01/M03 A3027 RMK AO2 SLP264 T00111033
Loading
Personal Weather Stations






























Interactive Weather Map New forecast layout! Learn more

10-Day Weather Forecast

Advertisements
Track Severe Weather on mobile